createdAt,value
2022-10-23T00:01:43.794Z,87.98
2022-10-23T00:04:15.087Z,88.11
2022-10-23T00:06:43.462Z,87.98
2022-10-23T00:09:13.319Z,88.55
2022-10-23T00:11:41.680Z,88.84
2022-10-23T00:14:09.334Z,88.76
2022-10-23T00:16:37.165Z,88.99
2022-10-23T00:19:04.959Z,88.92
2022-10-23T00:21:32.503Z,88.97
2022-10-23T00:24:00.337Z,89.20
2022-10-23T00:26:27.835Z,89.28
2022-10-23T00:28:56.211Z,89.51
2022-10-23T00:31:25.064Z,89.52
2022-10-23T00:33:53.345Z,89.73
2022-10-23T00:36:21.623Z,89.79
2022-10-23T00:38:51.292Z,90.05
2022-10-23T00:41:25.365Z,90.09
2022-10-23T00:44:06.367Z,90.02
2022-10-23T00:46:34.966Z,89.93
2022-10-23T00:49:04.576Z,89.46
2022-10-23T00:51:38.631Z,89.02
2022-10-23T00:54:24.446Z,88.55
2022-10-23T00:56:59.441Z,87.93
2022-10-23T00:59:27.836Z,87.61
2022-10-23T01:01:55.484Z,86.93
2022-10-23T01:04:23.988Z,87.80
2022-10-23T01:06:57.654Z,87.74
2022-10-23T01:09:46.485Z,87.20
2022-10-23T01:12:34.541Z,87.23
2022-10-23T01:15:21.884Z,87.83
2022-10-23T01:18:02.380Z,88.38
2022-10-23T01:20:46.774Z,88.33
2022-10-23T01:23:38.727Z,88.93
2022-10-23T01:26:29.917Z,88.70
2022-10-23T01:29:15.126Z,89.60
2022-10-23T01:31:55.573Z,88.86
2022-10-23T01:34:30.821Z,88.70
2022-10-23T01:37:01.478Z,88.66
2022-10-23T01:39:37.032Z,88.04
2022-10-23T01:42:11.909Z,88.36
2022-10-23T01:44:44.912Z,89.07
2022-10-23T01:47:16.131Z,89.01
2022-10-23T01:49:47.674Z,89.25
2022-10-23T01:52:16.600Z,89.58
2022-10-23T01:54:46.465Z,89.17
2022-10-23T01:57:18.051Z,89.82
2022-10-23T01:59:51.836Z,90.96
2022-10-23T02:02:22.789Z,91.63
2022-10-23T02:04:59.487Z,91.76
2022-10-23T02:07:27.156Z,91.68
2022-10-23T02:09:54.982Z,91.75
2022-10-23T02:12:56.111Z,91.68
2022-10-23T02:15:41.475Z,91.57
2022-10-23T02:18:44.664Z,91.41
2022-10-23T02:21:17.643Z,91.25
2022-10-23T02:24:07.976Z,91.00
2022-10-23T02:26:49.150Z,91.08
2022-10-23T02:29:33.677Z,91.17
2022-10-23T02:32:02.252Z,91.09
2022-10-23T02:34:29.980Z,91.18
2022-10-23T02:36:57.733Z,91.41
2022-10-23T02:39:27.922Z,91.54
2022-10-23T02:42:28.154Z,91.66
2022-10-23T02:45:29.863Z,91.71
2022-10-23T02:48:19.193Z,91.82
2022-10-23T02:51:00.351Z,91.75
2022-10-23T02:53:33.483Z,92.00
2022-10-23T02:56:03.702Z,91.69
2022-10-23T02:58:34.084Z,91.85
2022-10-23T03:01:24.881Z,92.19
2022-10-23T03:03:56.773Z,92.05
2022-10-23T03:06:25.306Z,92.17
2022-10-23T03:08:57.809Z,92.28
2022-10-23T03:11:25.829Z,92.16
2022-10-23T03:13:53.522Z,92.02
2022-10-23T03:16:20.980Z,92.31
2022-10-23T03:18:50.410Z,92.42
2022-10-23T03:21:18.236Z,92.58
2022-10-23T03:23:45.671Z,92.71
2022-10-23T03:26:15.015Z,92.67
2022-10-23T03:28:42.891Z,92.72
2022-10-23T03:31:10.383Z,92.78
2022-10-23T03:33:38.933Z,92.67
2022-10-23T03:36:07.365Z,93.04
2022-10-23T03:38:35.236Z,92.96
2022-10-23T03:41:03.014Z,92.99
2022-10-23T03:43:30.708Z,93.17
2022-10-23T03:45:58.101Z,93.08
2022-10-23T03:48:25.968Z,92.95
2022-10-23T03:50:57.814Z,92.88
2022-10-23T03:53:25.318Z,93.01
2022-10-23T03:55:53.431Z,92.87
2022-10-23T03:58:21.106Z,92.82
2022-10-23T04:00:49.416Z,92.69
2022-10-23T04:03:17.095Z,92.80
2022-10-23T04:05:44.484Z,92.97
2022-10-23T04:08:14.189Z,92.77
2022-10-23T04:10:45.256Z,92.57
2022-10-23T04:13:12.859Z,92.84
2022-10-23T04:15:40.354Z,92.87
2022-10-23T04:18:08.087Z,92.60
2022-10-23T04:20:36.067Z,92.39
2022-10-23T04:23:03.528Z,92.09
2022-10-23T04:25:34.403Z,91.66
2022-10-23T04:28:01.880Z,91.43
2022-10-23T04:30:32.849Z,91.34
2022-10-23T04:33:00.707Z,91.41
2022-10-23T04:35:29.519Z,90.84
2022-10-23T04:37:57.303Z,90.67
2022-10-23T04:40:24.711Z,90.60
2022-10-23T04:42:52.984Z,90.51
2022-10-23T04:45:21.051Z,90.78
2022-10-23T04:47:48.451Z,91.22
2022-10-23T04:50:16.205Z,91.55
2022-10-23T04:53:04.298Z,90.93
2022-10-23T04:55:32.236Z,90.67
2022-10-23T04:58:04.262Z,91.02
2022-10-23T05:00:32.614Z,91.21
2022-10-23T05:03:00.078Z,91.78
2022-10-23T05:05:30.994Z,92.37
2022-10-23T05:07:59.412Z,92.70
2022-10-23T05:10:27.135Z,93.06
2022-10-23T05:12:55.143Z,93.48
2022-10-23T05:15:22.612Z,93.54
2022-10-23T05:17:53.584Z,93.57
2022-10-23T05:20:25.230Z,93.61
2022-10-23T05:22:55.575Z,93.44
2022-10-23T05:25:24.749Z,93.61
2022-10-23T05:27:52.827Z,93.50
2022-10-23T05:30:20.285Z,93.34
2022-10-23T05:32:48.553Z,93.27
2022-10-23T05:35:21.714Z,93.22
2022-10-23T05:37:51.892Z,93.62
2022-10-23T05:40:19.797Z,93.49
2022-10-23T05:42:48.165Z,93.07
2022-10-23T05:45:17.522Z,92.69
2022-10-23T05:47:46.390Z,92.43
2022-10-23T05:50:15.962Z,92.20
2022-10-23T05:52:49.091Z,91.79
2022-10-23T05:55:17.630Z,92.13
2022-10-23T05:57:46.518Z,92.70
2022-10-23T06:00:14.937Z,93.38
2022-10-23T06:02:42.370Z,93.51
2022-10-23T06:05:11.213Z,93.22
2022-10-23T06:07:39.670Z,93.17
2022-10-23T06:10:07.477Z,93.37
2022-10-23T06:12:35.821Z,92.62
2022-10-23T06:15:04.072Z,92.30
2022-10-23T06:17:33.011Z,92.16
2022-10-23T06:20:03.527Z,92.21
2022-10-23T06:22:33.630Z,92.65
2022-10-23T06:25:02.679Z,91.94
2022-10-23T06:27:30.457Z,90.93
2022-10-23T06:29:57.907Z,90.99
2022-10-23T06:32:25.635Z,91.73
2022-10-23T06:34:54.842Z,91.05
2022-10-23T06:37:22.236Z,91.47
2022-10-23T06:39:50.169Z,91.49
2022-10-23T06:42:17.761Z,91.11
2022-10-23T06:44:48.457Z,90.00
2022-10-23T06:47:18.270Z,89.80
2022-10-23T06:49:47.215Z,89.96
2022-10-23T06:52:34.940Z,89.96
2022-10-23T06:55:04.434Z,90.19
2022-10-23T06:57:32.232Z,89.57
2022-10-23T06:59:59.633Z,89.62
2022-10-23T07:02:27.523Z,89.81
2022-10-23T07:04:55.229Z,89.19
2022-10-23T07:07:22.827Z,88.60
2022-10-23T07:09:50.598Z,88.41
2022-10-23T07:12:20.332Z,88.92
2022-10-23T07:14:48.860Z,88.74
2022-10-23T07:17:16.750Z,88.12
2022-10-23T07:19:48.295Z,88.00
2022-10-23T07:22:16.287Z,87.93
2022-10-23T07:24:44.376Z,88.54
2022-10-23T07:27:12.092Z,88.98
2022-10-23T07:29:39.853Z,89.29
2022-10-23T07:32:07.336Z,89.46
2022-10-23T07:34:37.264Z,89.78
2022-10-23T07:37:06.006Z,89.78
2022-10-23T07:39:33.442Z,89.84
2022-10-23T07:42:01.007Z,90.25
2022-10-23T07:44:28.818Z,90.21
2022-10-23T07:46:56.392Z,90.36
2022-10-23T07:49:23.807Z,89.40
2022-10-23T07:51:53.976Z,88.75
2022-10-23T07:54:21.454Z,89.40
2022-10-23T07:56:50.419Z,88.79
2022-10-23T07:59:19.466Z,89.33
2022-10-23T08:01:50.536Z,88.28
2022-10-23T08:04:20.992Z,87.17
2022-10-23T08:06:49.138Z,88.03
2022-10-23T08:09:16.823Z,87.64
2022-10-23T08:11:44.608Z,87.98
2022-10-23T08:14:14.322Z,88.13
2022-10-23T08:16:42.680Z,87.48
2022-10-23T08:19:12.180Z,87.14
2022-10-23T08:21:40.470Z,83.79
2022-10-23T08:24:13.299Z,81.10
2022-10-23T08:26:41.399Z,81.98
2022-10-23T08:29:09.747Z,81.86
2022-10-23T08:31:37.394Z,80.54
2022-10-23T08:34:07.108Z,80.34
2022-10-23T08:36:36.461Z,80.01
2022-10-23T08:39:04.375Z,80.01
2022-10-23T08:41:37.638Z,82.76
2022-10-23T08:44:20.387Z,82.37
2022-10-23T08:46:56.275Z,82.63
2022-10-23T08:49:49.793Z,83.08
2022-10-23T08:52:25.014Z,81.63
2022-10-23T08:55:22.800Z,82.59
2022-10-23T08:58:06.546Z,83.45
2022-10-23T09:00:34.622Z,83.49
2022-10-23T09:03:05.381Z,83.16
2022-10-23T09:05:37.118Z,84.41
2022-10-23T09:08:42.267Z,84.05
2022-10-23T09:11:30.716Z,83.89
2022-10-23T09:14:16.922Z,84.21
2022-10-23T09:16:50.174Z,84.31
2022-10-23T09:19:26.415Z,84.30
2022-10-23T09:21:55.690Z,83.82
2022-10-23T09:24:26.178Z,84.24
2022-10-23T09:26:54.369Z,84.28
2022-10-23T09:29:28.651Z,84.61
2022-10-23T09:31:58.538Z,84.79
2022-10-23T09:34:29.168Z,85.21
2022-10-23T09:37:03.859Z,86.21
2022-10-23T09:39:34.155Z,85.60
2022-10-23T09:42:13.946Z,85.98
2022-10-23T09:44:48.841Z,86.46
2022-10-23T09:47:20.756Z,86.57
2022-10-23T09:49:58.831Z,85.95
2022-10-23T09:52:35.924Z,86.48
2022-10-23T09:55:18.988Z,86.70
2022-10-23T09:57:47.611Z,86.90
2022-10-23T10:00:18.531Z,87.27
2022-10-23T10:02:55.587Z,86.65
2022-10-23T10:05:25.288Z,86.32
2022-10-23T10:08:15.095Z,86.31
2022-10-23T10:10:50.325Z,85.84
2022-10-23T10:13:37.784Z,85.57
2022-10-23T10:16:20.131Z,85.73
2022-10-23T10:18:56.386Z,85.78
2022-10-23T10:21:42.475Z,85.73
2022-10-23T10:24:24.140Z,85.24
2022-10-23T10:26:57.263Z,84.74
2022-10-23T10:29:43.521Z,85.11
2022-10-23T10:33:06.672Z,85.21
2022-10-23T10:35:37.592Z,84.09
2022-10-23T10:38:32.244Z,82.89
2022-10-23T10:41:14.361Z,80.47
2022-10-23T10:44:09.623Z,79.61
2022-10-23T10:46:51.175Z,80.15
2022-10-23T10:49:43.231Z,79.46
2022-10-23T10:52:33.716Z,79.85
2022-10-23T10:55:16.442Z,79.68
2022-10-23T10:57:50.383Z,78.52
2022-10-23T11:00:21.324Z,77.74
2022-10-23T11:02:54.138Z,77.54
2022-10-23T11:05:38.921Z,77.70
2022-10-23T11:08:18.189Z,77.61
2022-10-23T11:10:49.525Z,78.28
2022-10-23T11:13:35.308Z,78.76
2022-10-23T11:16:30.168Z,79.26
2022-10-23T11:19:35.611Z,79.53
2022-10-23T11:22:24.619Z,80.35
2022-10-23T11:25:29.879Z,81.00
2022-10-23T11:28:20.161Z,81.71
2022-10-23T11:31:10.938Z,81.09
2022-10-23T11:34:08.891Z,81.37
2022-10-23T11:36:42.972Z,80.68
2022-10-23T11:39:23.636Z,80.78
2022-10-23T11:41:56.463Z,79.87
2022-10-23T11:44:26.618Z,80.27
2022-10-23T11:47:39.549Z,81.04
2022-10-23T11:50:28.152Z,81.21
2022-10-23T11:53:13.760Z,81.69
2022-10-23T11:56:06.769Z,81.48
2022-10-23T12:01:44.326Z,81.89
2022-10-23T12:04:15.091Z,81.64
2022-10-23T12:06:47.621Z,81.17
2022-10-23T12:09:36.222Z,80.76
2022-10-23T12:12:09.540Z,81.00
2022-10-23T12:14:38.995Z,81.10
2022-10-23T12:17:24.984Z,80.74
2022-10-23T12:19:55.878Z,80.96
2022-10-23T12:22:30.863Z,81.59
2022-10-23T12:25:17.318Z,80.96
2022-10-23T12:27:57.246Z,81.54
2022-10-23T12:31:02.935Z,81.49
2022-10-23T12:33:56.199Z,80.81
2022-10-23T12:36:36.222Z,81.26
2022-10-23T12:39:03.694Z,80.62
2022-10-23T12:41:34.801Z,80.95
2022-10-23T12:44:04.939Z,80.38
2022-10-23T12:46:41.700Z,79.86
2022-10-23T12:49:15.661Z,79.83
2022-10-23T12:51:43.806Z,79.06
2022-10-23T12:54:21.639Z,78.55
2022-10-23T12:56:49.850Z,77.99
2022-10-23T12:59:23.342Z,77.12
2022-10-23T13:01:53.025Z,76.70
2022-10-23T13:04:31.272Z,77.57
2022-10-23T13:07:02.148Z,78.00
2022-10-23T13:09:42.264Z,77.61
2022-10-23T13:12:22.509Z,78.63
2022-10-23T13:15:06.945Z,78.95
2022-10-23T13:17:39.126Z,79.71
2022-10-23T13:20:18.789Z,78.93
2022-10-23T13:22:59.431Z,79.17
2022-10-23T13:25:33.480Z,79.69
2022-10-23T13:28:23.030Z,79.61
2022-10-23T13:31:22.528Z,79.55
2022-10-23T13:34:23.578Z,79.27
2022-10-23T13:37:01.187Z,80.10
2022-10-23T13:39:33.623Z,79.91
2022-10-23T13:42:11.841Z,80.01
2022-10-23T13:44:40.742Z,80.25
2022-10-23T13:47:16.028Z,80.74
2022-10-23T13:49:43.755Z,81.14
2022-10-23T13:52:23.547Z,80.96
2022-10-23T13:54:51.284Z,81.95
2022-10-23T13:57:18.709Z,82.00
2022-10-23T13:59:46.096Z,82.46
2022-10-23T14:02:24.357Z,82.60
2022-10-23T14:04:52.213Z,83.07
2022-10-23T14:07:19.661Z,83.56
2022-10-23T14:09:47.474Z,83.64
2022-10-23T14:12:16.871Z,83.93
2022-10-23T14:14:44.304Z,83.90
2022-10-23T14:17:11.785Z,84.20
2022-10-23T14:19:39.513Z,84.39
2022-10-23T14:22:07.080Z,84.51
2022-10-23T14:24:35.140Z,84.43
2022-10-23T14:27:03.383Z,84.75
2022-10-23T14:29:31.483Z,84.50
2022-10-23T14:31:59.143Z,84.95
2022-10-23T14:34:26.877Z,85.03
2022-10-23T14:37:07.983Z,85.44
2022-10-23T14:39:36.717Z,85.19
2022-10-23T14:42:04.325Z,85.28
2022-10-23T14:44:31.806Z,85.16
2022-10-23T14:47:00.143Z,85.03
2022-10-23T14:49:27.561Z,85.25
2022-10-23T14:51:54.973Z,85.35
2022-10-23T14:54:22.718Z,85.55
2022-10-23T14:56:50.074Z,85.57
2022-10-23T14:59:17.505Z,85.58
2022-10-23T15:01:48.218Z,85.84
2022-10-23T15:04:16.545Z,85.58
2022-10-23T15:06:45.120Z,85.89
2022-10-23T15:09:13.694Z,86.03
2022-10-23T15:11:41.434Z,86.44
2022-10-23T15:14:09.032Z,85.81
2022-10-23T15:16:41.469Z,86.06
2022-10-23T15:19:18.106Z,85.97
2022-10-23T15:21:47.990Z,85.94
2022-10-23T15:24:16.858Z,86.06
2022-10-23T15:26:45.540Z,85.94
2022-10-23T15:29:14.875Z,85.96
2022-10-23T15:31:45.353Z,86.01
2022-10-23T15:34:19.546Z,86.29
2022-10-23T15:36:47.938Z,86.40
2022-10-23T15:39:18.532Z,86.34
2022-10-23T15:41:46.135Z,86.39
2022-10-23T15:44:17.331Z,86.26
2022-10-23T15:46:45.198Z,86.61
2022-10-23T15:49:13.195Z,86.20
2022-10-23T15:51:42.062Z,86.20
2022-10-23T15:54:16.613Z,86.50
2022-10-23T15:56:48.021Z,86.25
2022-10-23T15:59:17.059Z,86.25
2022-10-23T16:01:44.638Z,86.83
2022-10-23T16:04:13.080Z,87.03
2022-10-23T16:06:40.608Z,86.97
2022-10-23T16:09:08.265Z,87.21
2022-10-23T16:11:37.724Z,87.54
2022-10-23T16:14:06.125Z,87.75
2022-10-23T16:16:34.225Z,87.48
2022-10-23T16:19:03.788Z,87.69
2022-10-23T16:21:36.243Z,87.95
2022-10-23T16:24:07.769Z,87.85
2022-10-23T16:26:36.127Z,87.81
2022-10-23T16:29:06.384Z,87.94
2022-10-23T16:31:34.462Z,88.08
2022-10-23T16:34:05.144Z,88.18
2022-10-23T16:36:39.412Z,88.24
2022-10-23T16:39:10.202Z,88.12
2022-10-23T16:41:51.174Z,87.99
2022-10-23T16:44:18.661Z,87.45
2022-10-23T16:46:47.982Z,86.94
2022-10-23T16:49:15.456Z,87.17
2022-10-23T16:51:42.865Z,87.16
2022-10-23T16:54:10.746Z,86.60
2022-10-23T16:56:38.308Z,86.79
2022-10-23T16:59:05.763Z,86.48
2022-10-23T17:01:34.078Z,86.09
2022-10-23T17:04:01.671Z,86.48
2022-10-23T17:06:32.529Z,88.08
2022-10-23T17:09:01.377Z,87.79
2022-10-23T17:11:33.871Z,87.27
2022-10-23T17:14:04.595Z,87.79
2022-10-23T17:16:44.602Z,87.88
2022-10-23T17:19:20.711Z,87.66
2022-10-23T17:21:48.479Z,87.50
2022-10-23T17:24:16.634Z,87.28
2022-10-23T17:26:44.046Z,86.83
2022-10-23T17:29:15.092Z,86.75
2022-10-23T17:31:45.667Z,88.04
2022-10-23T17:34:18.307Z,88.98
2022-10-23T17:36:49.411Z,88.22
2022-10-23T17:39:20.806Z,87.60
2022-10-23T17:41:48.659Z,87.98
2022-10-23T17:44:17.755Z,87.99
2022-10-23T17:46:53.013Z,87.57
2022-10-23T17:49:21.456Z,89.04
2022-10-23T17:51:52.568Z,89.12
2022-10-23T17:54:20.596Z,88.63
2022-10-23T17:56:48.367Z,88.34
2022-10-23T17:59:18.868Z,89.36
2022-10-23T18:01:48.228Z,89.10
2022-10-23T18:04:19.453Z,88.06
2022-10-23T18:06:49.962Z,88.50
2022-10-23T18:09:18.704Z,88.48
2022-10-23T18:11:48.217Z,87.96
2022-10-23T18:14:18.551Z,87.99
2022-10-23T18:16:46.799Z,88.51
2022-10-23T18:19:17.224Z,88.94
2022-10-23T18:21:45.026Z,87.86
2022-10-23T18:24:12.797Z,88.27
2022-10-23T18:26:41.729Z,87.55
2022-10-23T18:29:10.772Z,88.51
2022-10-23T18:31:38.888Z,87.76
2022-10-23T18:34:08.884Z,88.29
2022-10-23T18:36:39.312Z,89.49
2022-10-23T18:39:09.560Z,89.11
2022-10-23T18:41:40.056Z,88.66
2022-10-23T18:44:08.473Z,89.94
2022-10-23T18:46:37.277Z,89.18
2022-10-23T18:49:04.896Z,88.42
2022-10-23T18:51:34.999Z,89.75
2022-10-23T18:54:14.058Z,90.67
2022-10-23T18:56:42.257Z,89.38
2022-10-23T18:59:15.633Z,89.41
2022-10-23T19:01:44.254Z,89.76
2022-10-23T19:04:14.120Z,88.51
2022-10-23T19:06:41.650Z,88.62
2022-10-23T19:09:10.462Z,89.75
2022-10-23T19:11:38.255Z,89.71
2022-10-23T19:14:05.773Z,90.71
2022-10-23T19:16:38.519Z,91.44
2022-10-23T19:19:17.810Z,91.76
2022-10-23T19:21:46.342Z,90.67
2022-10-23T19:24:18.333Z,91.25
2022-10-23T19:26:46.856Z,90.40
2022-10-23T19:29:20.071Z,91.59
2022-10-23T19:31:49.336Z,90.03
2022-10-23T19:34:19.995Z,89.34
2022-10-23T19:36:48.959Z,89.28
2022-10-23T19:39:16.968Z,90.43
2022-10-23T19:41:44.768Z,89.97
2022-10-23T19:44:14.730Z,89.92
2022-10-23T19:46:42.287Z,90.94
2022-10-23T19:49:10.264Z,90.61
2022-10-23T19:51:38.495Z,90.04
2022-10-23T19:54:06.806Z,89.26
2022-10-23T19:56:35.804Z,89.62
2022-10-23T19:59:03.707Z,89.44
2022-10-23T20:01:31.292Z,89.80
2022-10-23T20:03:59.186Z,89.88
2022-10-23T20:06:29.864Z,89.89
2022-10-23T20:08:57.436Z,90.04
2022-10-23T20:11:30.736Z,89.70
2022-10-23T20:13:58.456Z,89.62
2022-10-23T20:16:31.686Z,89.71
2022-10-23T20:19:02.721Z,89.01
2022-10-23T20:21:30.481Z,91.40
2022-10-23T20:23:59.219Z,90.06
2022-10-23T20:26:26.939Z,89.23
2022-10-23T20:28:55.997Z,89.04
2022-10-23T20:31:25.583Z,88.79
2022-10-23T20:33:53.646Z,90.18
2022-10-23T20:36:36.619Z,89.68
2022-10-23T20:39:09.916Z,89.04
2022-10-23T20:41:38.502Z,89.39
2022-10-23T20:44:09.518Z,91.20
2022-10-23T20:46:37.169Z,91.32
2022-10-23T20:49:04.928Z,91.01
2022-10-23T20:51:32.755Z,92.72
2022-10-23T20:54:00.242Z,92.02
2022-10-23T20:56:31.188Z,90.89
2022-10-23T20:59:07.458Z,91.21
2022-10-23T21:01:35.839Z,91.12
2022-10-23T21:04:03.651Z,90.44
2022-10-23T21:06:45.618Z,90.46
2022-10-23T21:09:21.835Z,90.64
2022-10-23T21:11:49.874Z,90.62
2022-10-23T21:14:17.262Z,92.52
2022-10-23T21:16:46.567Z,91.90
2022-10-23T21:19:15.848Z,91.51
2022-10-23T21:21:43.987Z,92.01
2022-10-23T21:24:16.127Z,91.56
2022-10-23T21:26:44.055Z,91.32
2022-10-23T21:29:18.976Z,92.04
2022-10-23T21:31:56.022Z,90.23
2022-10-23T21:34:25.356Z,90.58
2022-10-23T21:39:44.713Z,89.45
2022-10-23T21:42:13.796Z,89.16
2022-10-23T21:44:41.498Z,89.92
2022-10-23T21:47:09.215Z,88.99
2022-10-23T21:49:36.919Z,88.93
2022-10-23T21:52:04.991Z,89.74
2022-10-23T21:54:32.553Z,89.97
2022-10-23T21:56:59.986Z,90.16
2022-10-23T21:59:30.190Z,90.04
2022-10-23T22:01:59.582Z,89.55
2022-10-23T22:04:27.479Z,90.45
2022-10-23T22:06:55.034Z,90.72
2022-10-23T22:09:22.807Z,91.58
2022-10-23T22:11:52.166Z,90.77
2022-10-23T22:14:20.003Z,91.44
2022-10-23T22:16:48.062Z,91.45
2022-10-23T22:19:17.595Z,92.38
2022-10-23T22:21:45.740Z,93.36
2022-10-23T22:24:13.483Z,91.64
2022-10-23T22:26:47.511Z,90.88
2022-10-23T22:29:18.409Z,89.94
2022-10-23T22:31:48.882Z,88.89
2022-10-23T22:34:52.397Z,88.97
2022-10-23T22:37:21.028Z,91.55
2022-10-23T22:39:52.359Z,91.00
2022-10-23T22:42:20.607Z,92.09
2022-10-23T22:44:48.295Z,91.38
2022-10-23T22:47:15.666Z,92.89
2022-10-23T22:49:43.058Z,93.33
2022-10-23T22:52:10.728Z,92.66
2022-10-23T22:54:38.115Z,93.87
2022-10-23T22:57:05.563Z,91.38
2022-10-23T22:59:33.263Z,89.92
2022-10-23T23:02:00.763Z,90.12
2022-10-23T23:04:43.542Z,91.18
2022-10-23T23:07:12.723Z,92.92
2022-10-23T23:09:42.890Z,92.39
2022-10-23T23:12:13.470Z,93.48
2022-10-23T23:14:41.460Z,93.03
2022-10-23T23:17:09.836Z,91.84
2022-10-23T23:19:37.607Z,94.40
2022-10-23T23:22:05.350Z,95.14
2022-10-23T23:24:33.131Z,93.23
2022-10-23T23:27:00.839Z,95.68
2022-10-23T23:29:29.584Z,94.09
2022-10-23T23:31:57.335Z,92.91
2022-10-23T23:34:25.037Z,93.42
2022-10-23T23:36:52.461Z,91.35
2022-10-23T23:39:19.866Z,91.80
2022-10-23T23:41:47.548Z,91.72
2022-10-23T23:44:14.982Z,90.74
2022-10-23T23:46:42.383Z,92.46
2022-10-23T23:49:10.085Z,95.20
2022-10-23T23:51:37.568Z,94.78
2022-10-23T23:54:05.005Z,95.04
2022-10-23T23:56:32.722Z,95.42
2022-10-23T23:59:00.111Z,93.56
